sensor_id;sensor_type;location;lat;lon;timestamp;pressure;altitude;pressure_sealevel;temperature;humidity
692;BME280;70475;50.084;8.576;2023-09-19T00:00:21;100122.59;;;16.18;100.00
692;BME280;70475;50.084;8.576;2023-09-19T00:02:52;100115.69;;;16.22;100.00
692;BME280;70475;50.084;8.576;2023-09-19T00:05:20;100117.56;;;16.22;100.00
692;BME280;70475;50.084;8.576;2023-09-19T00:07:50;100117.22;;;16.18;100.00
692;BME280;70475;50.084;8.576;2023-09-19T00:10:21;100120.50;;;16.20;100.00
692;BME280;70475;50.084;8.576;2023-09-19T00:12:52;100120.03;;;16.23;100.00
692;BME280;70475;50.084;8.576;2023-09-19T00:15:21;100127.25;;;16.23;100.00
692;BME280;70475;50.084;8.576;2023-09-19T00:17:49;100127.72;;;16.20;100.00
692;BME280;70475;50.084;8.576;2023-09-19T00:20:18;100120.03;;;16.23;100.00
692;BME280;70475;50.084;8.576;2023-09-19T00:22:49;100128.09;;;16.23;100.00
692;BME280;70475;50.084;8.576;2023-09-19T00:25:18;100131.81;;;16.22;100.00
692;BME280;70475;50.084;8.576;2023-09-19T00:27:46;100128.78;;;16.19;100.00
692;BME280;70475;50.084;8.576;2023-09-19T00:30:19;100137.63;;;16.19;100.00
692;BME280;70475;50.084;8.576;2023-09-19T00:32:48;100134.72;;;16.21;100.00
692;BME280;70475;50.084;8.576;2023-09-19T00:35:18;100130.53;;;16.13;100.00
692;BME280;70475;50.084;8.576;2023-09-19T00:37:46;100130.53;;;16.13;100.00
692;BME280;70475;50.084;8.576;2023-09-19T00:40:13;100129.25;;;16.16;100.00
692;BME280;70475;50.084;8.576;2023-09-19T00:42:42;100128.88;;;16.12;100.00
692;BME280;70475;50.084;8.576;2023-09-19T00:45:11;100131.09;;;16.15;100.00
692;BME280;70475;50.084;8.576;2023-09-19T00:47:41;100124.56;;;16.11;100.00
692;BME280;70475;50.084;8.576;2023-09-19T00:50:11;100137.63;;;16.08;100.00
692;BME280;70475;50.084;8.576;2023-09-19T00:52:42;100136.84;;;16.07;100.00
692;BME280;70475;50.084;8.576;2023-09-19T00:55:11;100143.97;;;16.13;100.00
692;BME280;70475;50.084;8.576;2023-09-19T00:57:40;100137.53;;;16.14;100.00
692;BME280;70475;50.084;8.576;2023-09-19T01:00:18;100137.19;;;16.22;100.00
692;BME280;70475;50.084;8.576;2023-09-19T01:02:48;100145.38;;;16.16;100.00
692;BME280;70475;50.084;8.576;2023-09-19T01:05:16;100143.16;;;16.13;100.00
692;BME280;70475;50.084;8.576;2023-09-19T01:07:45;100153.19;;;16.17;100.00
692;BME280;70475;50.084;8.576;2023-09-19T01:10:17;100155.88;;;16.17;100.00
692;BME280;70475;50.084;8.576;2023-09-19T01:12:55;100159.72;;;16.21;100.00
692;BME280;70475;50.084;8.576;2023-09-19T01:15:32;100163.56;;;16.14;100.00
692;BME280;70475;50.084;8.576;2023-09-19T01:18:16;100168.84;;;16.20;100.00
692;BME280;70475;50.084;8.576;2023-09-19T01:20:55;100179.00;;;16.18;100.00
692;BME280;70475;50.084;8.576;2023-09-19T01:23:37;100176.44;;;16.12;100.00
692;BME280;70475;50.084;8.576;2023-09-19T01:26:12;100180.06;;;16.17;100.00
692;BME280;70475;50.084;8.576;2023-09-19T01:28:53;100183.75;;;16.05;100.00
692;BME280;70475;50.084;8.576;2023-09-19T01:31:23;100190.88;;;15.99;100.00
692;BME280;70475;50.084;8.576;2023-09-19T01:33:56;100196.94;;;15.95;100.00
692;BME280;70475;50.084;8.576;2023-09-19T01:36:29;100201.78;;;16.04;100.00
692;BME280;70475;50.084;8.576;2023-09-19T01:38:57;100204.91;;;16.01;100.00
692;BME280;70475;50.084;8.576;2023-09-19T01:41:33;100203.25;;;16.00;100.00
692;BME280;70475;50.084;8.576;2023-09-19T01:44:09;100204.53;;;15.98;100.00
692;BME280;70475;50.084;8.576;2023-09-19T01:46:41;100205.72;;;16.02;100.00
692;BME280;70475;50.084;8.576;2023-09-19T01:49:22;100209.31;;;15.96;100.00
692;BME280;70475;50.084;8.576;2023-09-19T01:51:57;100203.59;;;15.92;100.00
692;BME280;70475;50.084;8.576;2023-09-19T01:54:33;100217.25;;;15.91;100.00
692;BME280;70475;50.084;8.576;2023-09-19T01:57:08;100211.16;;;15.84;100.00
692;BME280;70475;50.084;8.576;2023-09-19T01:59:43;100217.78;;;15.81;100.00
692;BME280;70475;50.084;8.576;2023-09-19T02:02:13;100218.47;;;15.77;100.00
692;BME280;70475;50.084;8.576;2023-09-19T02:04:42;100220.94;;;15.78;100.00
692;BME280;70475;50.084;8.576;2023-09-19T02:07:10;100229.00;;;15.78;100.00
692;BME280;70475;50.084;8.576;2023-09-19T02:09:37;100222.72;;;15.84;100.00
692;BME280;70475;50.084;8.576;2023-09-19T02:12:06;100228.63;;;15.75;100.00
692;BME280;70475;50.084;8.576;2023-09-19T02:14:34;100231.09;;;15.76;100.00
692;BME280;70475;50.084;8.576;2023-09-19T02:17:03;100236.53;;;15.70;100.00
692;BME280;70475;50.084;8.576;2023-09-19T02:19:33;100242.81;;;15.64;100.00
692;BME280;70475;50.084;8.576;2023-09-19T02:22:01;100246.19;;;15.59;100.00
692;BME280;70475;50.084;8.576;2023-09-19T02:24:29;100254.91;;;15.55;100.00
692;BME280;70475;50.084;8.576;2023-09-19T02:26:57;100247.06;;;15.53;100.00
692;BME280;70475;50.084;8.576;2023-09-19T02:29:26;100250.81;;;15.52;100.00
692;BME280;70475;50.084;8.576;2023-09-19T02:31:53;100257.25;;;15.51;100.00
692;BME280;70475;50.084;8.576;2023-09-19T02:34:22;100249.25;;;15.45;100.00
692;BME280;70475;50.084;8.576;2023-09-19T02:36:53;100254.25;;;15.41;100.00
692;BME280;70475;50.084;8.576;2023-09-19T02:39:21;100248.88;;;15.41;100.00
692;BME280;70475;50.084;8.576;2023-09-19T02:41:49;100253.22;;;15.42;100.00
692;BME280;70475;50.084;8.576;2023-09-19T02:44:17;100247.09;;;15.35;100.00
692;BME280;70475;50.084;8.576;2023-09-19T02:46:46;100251.91;;;15.27;100.00
692;BME280;70475;50.084;8.576;2023-09-19T02:49:14;100254.75;;;15.32;100.00
692;BME280;70475;50.084;8.576;2023-09-19T02:51:44;100247.97;;;15.29;100.00
692;BME280;70475;50.084;8.576;2023-09-19T02:54:13;100248.88;;;15.23;100.00
692;BME280;70475;50.084;8.576;2023-09-19T02:56:42;100251.53;;;15.23;100.00
692;BME280;70475;50.084;8.576;2023-09-19T02:59:09;100248.25;;;15.21;100.00
692;BME280;70475;50.084;8.576;2023-09-19T03:01:37;100250.78;;;15.16;100.00
692;BME280;70475;50.084;8.576;2023-09-19T03:04:05;100250.41;;;15.13;100.00
692;BME280;70475;50.084;8.576;2023-09-19T03:06:36;100258.81;;;15.16;100.00
692;BME280;70475;50.084;8.576;2023-09-19T03:09:04;100264.66;;;15.13;100.00
692;BME280;70475;50.084;8.576;2023-09-19T03:11:41;100262.19;;;15.12;100.00
692;BME280;70475;50.084;8.576;2023-09-19T03:14:08;100266.50;;;15.13;100.00
692;BME280;70475;50.084;8.576;2023-09-19T03:16:37;100259.34;;;15.07;100.00
692;BME280;70475;50.084;8.576;2023-09-19T03:19:05;100268.00;;;15.09;100.00
692;BME280;70475;50.084;8.576;2023-09-19T03:21:33;100265.56;;;15.07;100.00
692;BME280;70475;50.084;8.576;2023-09-19T03:24:01;100264.78;;;15.00;100.00
692;BME280;70475;50.084;8.576;2023-09-19T03:26:29;100264.56;;;15.02;100.00
692;BME280;70475;50.084;8.576;2023-09-19T03:28:58;100270.75;;;15.02;100.00
692;BME280;70475;50.084;8.576;2023-09-19T03:31:26;100273.88;;;14.99;100.00
692;BME280;70475;50.084;8.576;2023-09-19T03:33:53;100270.88;;;14.89;100.00
692;BME280;70475;50.084;8.576;2023-09-19T03:36:21;100269.59;;;14.92;100.00
692;BME280;70475;50.084;8.576;2023-09-19T03:38:49;100275.19;;;14.90;100.00
692;BME280;70475;50.084;8.576;2023-09-19T03:41:16;100278.84;;;14.96;100.00
692;BME280;70475;50.084;8.576;2023-09-19T03:43:44;100275.81;;;14.92;100.00
692;BME280;70475;50.084;8.576;2023-09-19T03:46:13;100281.59;;;14.89;100.00
692;BME280;70475;50.084;8.576;2023-09-19T03:48:41;100279.38;;;14.86;100.00
692;BME280;70475;50.084;8.576;2023-09-19T03:51:10;100271.75;;;14.83;100.00
692;BME280;70475;50.084;8.576;2023-09-19T03:53:37;100277.88;;;14.90;100.00
692;BME280;70475;50.084;8.576;2023-09-19T03:56:05;100276.69;;;14.86;100.00
692;BME280;70475;50.084;8.576;2023-09-19T03:58:34;100283.53;;;14.82;100.00
692;BME280;70475;50.084;8.576;2023-09-19T04:01:05;100281.66;;;14.83;100.00
692;BME280;70475;50.084;8.576;2023-09-19T04:03:35;100284.56;;;14.81;100.00
692;BME280;70475;50.084;8.576;2023-09-19T04:06:13;100279.97;;;14.88;100.00
692;BME280;70475;50.084;8.576;2023-09-19T04:08:40;100282.34;;;14.96;100.00
692;BME280;70475;50.084;8.576;2023-09-19T04:11:08;100282.75;;;15.00;100.00
692;BME280;70475;50.084;8.576;2023-09-19T04:13:35;100287.22;;;15.06;100.00
692;BME280;70475;50.084;8.576;2023-09-19T04:16:04;100290.13;;;15.04;100.00
692;BME280;70475;50.084;8.576;2023-09-19T04:18:34;100294.63;;;15.10;100.00
692;BME280;70475;50.084;8.576;2023-09-19T04:21:04;100295.81;;;15.14;100.00
692;BME280;70475;50.084;8.576;2023-09-19T04:23:32;100301.53;;;15.18;100.00
692;BME280;70475;50.084;8.576;2023-09-19T04:25:59;100300.28;;;15.20;100.00
692;BME280;70475;50.084;8.576;2023-09-19T04:28:27;100299.84;;;15.23;100.00
692;BME280;70475;50.084;8.576;2023-09-19T04:30:55;100302.78;;;15.15;100.00
692;BME280;70475;50.084;8.576;2023-09-19T04:33:22;100309.44;;;15.13;100.00
692;BME280;70475;50.084;8.576;2023-09-19T04:35:51;100303.03;;;15.14;100.00
692;BME280;70475;50.084;8.576;2023-09-19T04:38:18;100315.06;;;15.05;100.00
692;BME280;70475;50.084;8.576;2023-09-19T04:40:46;100329.13;;;15.00;100.00
692;BME280;70475;50.084;8.576;2023-09-19T04:43:14;100317.16;;;15.03;100.00
692;BME280;70475;50.084;8.576;2023-09-19T04:45:41;100311.41;;;14.99;100.00
692;BME280;70475;50.084;8.576;2023-09-19T04:48:09;100307.53;;;14.95;100.00
692;BME280;70475;50.084;8.576;2023-09-19T04:50:37;100320.94;;;14.95;100.00
692;BME280;70475;50.084;8.576;2023-09-19T04:53:06;100325.22;;;15.03;100.00
692;BME280;70475;50.084;8.576;2023-09-19T04:55:34;100326.44;;;15.00;100.00
692;BME280;70475;50.084;8.576;2023-09-19T04:58:02;100336.59;;;14.98;100.00
692;BME280;70475;50.084;8.576;2023-09-19T05:00:30;100336.03;;;14.90;100.00
692;BME280;70475;50.084;8.576;2023-09-19T05:03:01;100336.50;;;14.87;100.00
692;BME280;70475;50.084;8.576;2023-09-19T05:05:30;100332.00;;;14.81;100.00
692;BME280;70475;50.084;8.576;2023-09-19T05:07:58;100330.78;;;14.77;100.00
692;BME280;70475;50.084;8.576;2023-09-19T05:10:32;100338.59;;;14.78;100.00
692;BME280;70475;50.084;8.576;2023-09-19T05:13:00;100341.94;;;14.74;100.00
692;BME280;70475;50.084;8.576;2023-09-19T05:15:28;100345.63;;;14.79;100.00
692;BME280;70475;50.084;8.576;2023-09-19T05:17:55;100340.72;;;14.76;100.00
692;BME280;70475;50.084;8.576;2023-09-19T05:20:24;100348.03;;;14.87;100.00
692;BME280;70475;50.084;8.576;2023-09-19T05:23:00;100351.16;;;14.84;100.00
692;BME280;70475;50.084;8.576;2023-09-19T05:25:36;100349.13;;;14.80;100.00
692;BME280;70475;50.084;8.576;2023-09-19T05:28:06;100346.88;;;14.77;100.00
692;BME280;70475;50.084;8.576;2023-09-19T05:30:35;100345.63;;;14.79;100.00
692;BME280;70475;50.084;8.576;2023-09-19T05:33:05;100347.03;;;14.82;100.00
692;BME280;70475;50.084;8.576;2023-09-19T05:35:33;100353.81;;;14.84;100.00
692;BME280;70475;50.084;8.576;2023-09-19T05:38:00;100357.94;;;14.87;100.00
692;BME280;70475;50.084;8.576;2023-09-19T05:40:28;100363.47;;;14.92;100.00
692;BME280;70475;50.084;8.576;2023-09-19T05:42:57;100358.94;;;14.92;100.00
692;BME280;70475;50.084;8.576;2023-09-19T05:45:24;100365.31;;;14.91;100.00
692;BME280;70475;50.084;8.576;2023-09-19T05:47:53;100361.00;;;14.90;100.00
692;BME280;70475;50.084;8.576;2023-09-19T05:50:22;100367.56;;;14.94;100.00
692;BME280;70475;50.084;8.576;2023-09-19T05:52:52;100372.25;;;14.99;100.00
692;BME280;70475;50.084;8.576;2023-09-19T05:55:20;100371.41;;;15.05;100.00
692;BME280;70475;50.084;8.576;2023-09-19T05:57:51;100378.63;;;15.04;100.00
692;BME280;70475;50.084;8.576;2023-09-19T06:00:21;100385.47;;;15.00;100.00
692;BME280;70475;50.084;8.576;2023-09-19T06:02:50;100384.16;;;15.09;100.00
692;BME280;70475;50.084;8.576;2023-09-19T06:05:18;100384.59;;;15.06;100.00
692;BME280;70475;50.084;8.576;2023-09-19T06:07:46;100385.38;;;15.13;100.00
692;BME280;70475;50.084;8.576;2023-09-19T06:10:15;100383.28;;;15.15;100.00
692;BME280;70475;50.084;8.576;2023-09-19T06:12:43;100387.16;;;15.19;100.00
692;BME280;70475;50.084;8.576;2023-09-19T06:15:12;100393.75;;;15.23;100.00
692;BME280;70475;50.084;8.576;2023-09-19T06:17:46;100395.78;;;15.28;100.00
692;BME280;70475;50.084;8.576;2023-09-19T06:20:14;100398.97;;;15.36;100.00
692;BME280;70475;50.084;8.576;2023-09-19T06:22:44;100403.50;;;15.42;100.00
692;BME280;70475;50.084;8.576;2023-09-19T06:25:14;100400.75;;;15.49;100.00
692;BME280;70475;50.084;8.576;2023-09-19T06:27:45;100404.72;;;15.64;100.00
692;BME280;70475;50.084;8.576;2023-09-19T06:30:13;100408.06;;;15.60;100.00
692;BME280;70475;50.084;8.576;2023-09-19T06:32:42;100409.94;;;15.77;100.00
692;BME280;70475;50.084;8.576;2023-09-19T06:35:12;100409.22;;;15.88;100.00
692;BME280;70475;50.084;8.576;2023-09-19T06:37:41;100414.94;;;15.92;100.00
692;BME280;70475;50.084;8.576;2023-09-19T06:40:10;100415.19;;;15.90;100.00
692;BME280;70475;50.084;8.576;2023-09-19T06:42:41;100413.44;;;15.96;100.00
692;BME280;70475;50.084;8.576;2023-09-19T06:45:09;100419.94;;;16.06;100.00
692;BME280;70475;50.084;8.576;2023-09-19T06:47:37;100414.72;;;16.29;100.00
692;BME280;70475;50.084;8.576;2023-09-19T06:50:07;100419.16;;;16.06;100.00
692;BME280;70475;50.084;8.576;2023-09-19T06:52:39;100426.16;;;16.07;100.00
692;BME280;70475;50.084;8.576;2023-09-19T06:55:07;100422.06;;;16.04;100.00
692;BME280;70475;50.084;8.576;2023-09-19T06:57:36;100430.69;;;16.24;99.80
692;BME280;70475;50.084;8.576;2023-09-19T07:00:04;100430.63;;;16.31;99.26
692;BME280;70475;50.084;8.576;2023-09-19T07:02:35;100438.72;;;16.42;97.81
692;BME280;70475;50.084;8.576;2023-09-19T07:05:03;100437.56;;;16.20;97.56
692;BME280;70475;50.084;8.576;2023-09-19T07:07:35;100446.34;;;16.27;97.42
692;BME280;70475;50.084;8.576;2023-09-19T07:10:03;100458.22;;;16.38;96.68
692;BME280;70475;50.084;8.576;2023-09-19T07:12:31;100459.22;;;16.43;96.45
692;BME280;70475;50.084;8.576;2023-09-19T07:15:00;100466.19;;;16.63;95.39
692;BME280;70475;50.084;8.576;2023-09-19T07:17:27;100465.63;;;16.61;94.58
692;BME280;70475;50.084;8.576;2023-09-19T07:19:56;100472.63;;;16.62;94.20
692;BME280;70475;50.084;8.576;2023-09-19T07:22:24;100483.13;;;16.52;93.95
692;BME280;70475;50.084;8.576;2023-09-19T07:24:54;100485.28;;;16.73;90.93
692;BME280;70475;50.084;8.576;2023-09-19T07:27:22;100488.69;;;16.68;90.76
692;BME280;70475;50.084;8.576;2023-09-19T07:29:49;100496.75;;;16.68;89.81
692;BME280;70475;50.084;8.576;2023-09-19T07:32:20;100491.06;;;16.76;90.12
692;BME280;70475;50.084;8.576;2023-09-19T07:34:48;100507.97;;;16.65;90.13
692;BME280;70475;50.084;8.576;2023-09-19T07:37:16;100509.44;;;16.61;87.48
692;BME280;70475;50.084;8.576;2023-09-19T07:39:43;100507.63;;;16.73;87.92
692;BME280;70475;50.084;8.576;2023-09-19T07:42:12;100512.28;;;16.84;88.24
692;BME280;70475;50.084;8.576;2023-09-19T07:44:44;100513.06;;;16.85;86.92
692;BME280;70475;50.084;8.576;2023-09-19T07:47:13;100511.75;;;17.05;85.21
692;BME280;70475;50.084;8.576;2023-09-19T07:49:41;100517.22;;;16.99;85.65
692;BME280;70475;50.084;8.576;2023-09-19T07:52:09;100508.13;;;17.11;85.35
692;BME280;70475;50.084;8.576;2023-09-19T07:54:38;100520.03;;;17.04;84.11
692;BME280;70475;50.084;8.576;2023-09-19T07:57:07;100521.13;;;17.14;84.96
692;BME280;70475;50.084;8.576;2023-09-19T07:59:36;100522.56;;;17.17;84.51
692;BME280;70475;50.084;8.576;2023-09-19T08:02:04;100517.69;;;17.25;83.98
692;BME280;70475;50.084;8.576;2023-09-19T08:04:34;100516.00;;;17.24;85.10
692;BME280;70475;50.084;8.576;2023-09-19T08:07:02;100519.78;;;17.35;84.26
692;BME280;70475;50.084;8.576;2023-09-19T08:09:31;100525.38;;;17.22;82.55
692;BME280;70475;50.084;8.576;2023-09-19T08:12:00;100520.53;;;17.42;83.34
692;BME280;70475;50.084;8.576;2023-09-19T08:14:29;100537.09;;;17.27;82.64
692;BME280;70475;50.084;8.576;2023-09-19T08:16:58;100529.25;;;17.26;82.52
692;BME280;70475;50.084;8.576;2023-09-19T08:19:27;100524.53;;;17.51;81.67
692;BME280;70475;50.084;8.576;2023-09-19T08:21:57;100517.88;;;17.53;80.67
692;BME280;70475;50.084;8.576;2023-09-19T08:24:25;100535.03;;;17.41;80.12
692;BME280;70475;50.084;8.576;2023-09-19T08:26:55;100527.91;;;17.46;79.34
692;BME280;70475;50.084;8.576;2023-09-19T08:29:23;100542.00;;;17.60;78.15
692;BME280;70475;50.084;8.576;2023-09-19T08:31:54;100547.25;;;17.43;77.31
692;BME280;70475;50.084;8.576;2023-09-19T08:34:24;100530.03;;;17.44;76.54
692;BME280;70475;50.084;8.576;2023-09-19T08:36:52;100536.97;;;17.52;77.53
692;BME280;70475;50.084;8.576;2023-09-19T08:39:22;100538.00;;;17.51;75.80
692;BME280;70475;50.084;8.576;2023-09-19T08:41:56;100548.13;;;17.90;76.14
692;BME280;70475;50.084;8.576;2023-09-19T08:44:24;100556.09;;;17.85;72.19
692;BME280;70475;50.084;8.576;2023-09-19T08:46:54;100550.59;;;17.80;74.89
692;BME280;70475;50.084;8.576;2023-09-19T08:49:32;100544.25;;;17.74;74.05
692;BME280;70475;50.084;8.576;2023-09-19T08:52:05;100547.13;;;17.50;72.56
692;BME280;70475;50.084;8.576;2023-09-19T08:54:37;100553.75;;;17.36;72.33
692;BME280;70475;50.084;8.576;2023-09-19T08:57:07;100547.97;;;17.50;71.46
692;BME280;70475;50.084;8.576;2023-09-19T08:59:37;100553.22;;;17.57;70.63
692;BME280;70475;50.084;8.576;2023-09-19T09:02:10;100558.63;;;17.57;71.55
692;BME280;70475;50.084;8.576;2023-09-19T09:04:41;100555.81;;;17.52;69.50
692;BME280;70475;50.084;8.576;2023-09-19T09:07:10;100557.00;;;17.67;69.39
692;BME280;70475;50.084;8.576;2023-09-19T09:09:39;100560.63;;;17.61;68.90
692;BME280;70475;50.084;8.576;2023-09-19T09:12:09;100564.63;;;17.82;69.47
692;BME280;70475;50.084;8.576;2023-09-19T09:14:39;100565.78;;;17.74;67.93
692;BME280;70475;50.084;8.576;2023-09-19T09:17:06;100564.31;;;17.90;68.98
692;BME280;70475;50.084;8.576;2023-09-19T09:19:34;100569.13;;;18.22;67.48
692;BME280;70475;50.084;8.576;2023-09-19T09:22:10;100554.94;;;18.27;67.81
692;BME280;70475;50.084;8.576;2023-09-19T09:24:52;100562.78;;;17.94;66.63
692;BME280;70475;50.084;8.576;2023-09-19T09:27:20;100550.81;;;17.67;67.45
692;BME280;70475;50.084;8.576;2023-09-19T09:29:51;100554.69;;;17.71;67.85
692;BME280;70475;50.084;8.576;2023-09-19T09:32:23;100552.44;;;17.56;66.95
692;BME280;70475;50.084;8.576;2023-09-19T09:34:52;100554.91;;;17.81;66.64
692;BME280;70475;50.084;8.576;2023-09-19T09:37:26;100560.31;;;17.92;66.36
692;BME280;70475;50.084;8.576;2023-09-19T09:39:58;100561.00;;;17.88;65.95
692;BME280;70475;50.084;8.576;2023-09-19T09:42:45;100567.09;;;17.72;64.60
692;BME280;70475;50.084;8.576;2023-09-19T09:45:15;100570.47;;;17.79;64.83
692;BME280;70475;50.084;8.576;2023-09-19T09:47:44;100570.03;;;17.82;66.06
692;BME280;70475;50.084;8.576;2023-09-19T09:50:26;100570.53;;;17.90;63.88
692;BME280;70475;50.084;8.576;2023-09-19T09:52:57;100570.28;;;18.03;63.37
692;BME280;70475;50.084;8.576;2023-09-19T09:55:57;100572.38;;;18.01;62.78
692;BME280;70475;50.084;8.576;2023-09-19T09:58:25;100569.94;;;18.00;62.43
692;BME280;70475;50.084;8.576;2023-09-19T10:00:56;100573.56;;;18.05;62.33
692;BME280;70475;50.084;8.576;2023-09-19T10:03:33;100566.91;;;18.08;63.73
692;BME280;70475;50.084;8.576;2023-09-19T10:06:10;100575.69;;;18.15;63.49
692;BME280;70475;50.084;8.576;2023-09-19T10:09:02;100574.84;;;18.03;63.56
692;BME280;70475;50.084;8.576;2023-09-19T10:11:42;100571.81;;;18.11;64.39
692;BME280;70475;50.084;8.576;2023-09-19T10:14:11;100565.03;;;18.20;63.10
692;BME280;70475;50.084;8.576;2023-09-19T10:16:41;100567.34;;;18.28;63.85
692;BME280;70475;50.084;8.576;2023-09-19T10:19:15;100559.81;;;18.65;63.09
692;BME280;70475;50.084;8.576;2023-09-19T10:21:43;100570.03;;;18.51;64.31
692;BME280;70475;50.084;8.576;2023-09-19T10:24:13;100561.25;;;18.67;61.15
692;BME280;70475;50.084;8.576;2023-09-19T10:26:42;100567.09;;;18.64;61.16
692;BME280;70475;50.084;8.576;2023-09-19T10:29:13;100566.41;;;18.69;62.19
692;BME280;70475;50.084;8.576;2023-09-19T10:31:42;100563.81;;;18.62;60.30
692;BME280;70475;50.084;8.576;2023-09-19T10:34:14;100571.13;;;18.90;63.19
692;BME280;70475;50.084;8.576;2023-09-19T10:36:44;100574.34;;;18.75;61.77
692;BME280;70475;50.084;8.576;2023-09-19T10:39:16;100578.72;;;18.53;61.15
692;BME280;70475;50.084;8.576;2023-09-19T10:41:50;100581.31;;;18.60;62.84
692;BME280;70475;50.084;8.576;2023-09-19T10:44:23;100571.16;;;18.78;61.71
692;BME280;70475;50.084;8.576;2023-09-19T10:46:52;100569.94;;;18.46;60.71
692;BME280;70475;50.084;8.576;2023-09-19T10:49:20;100568.66;;;18.49;58.87
692;BME280;70475;50.084;8.576;2023-09-19T10:51:51;100562.19;;;18.61;59.31
692;BME280;70475;50.084;8.576;2023-09-19T10:54:25;100561.00;;;18.69;57.05
692;BME280;70475;50.084;8.576;2023-09-19T10:56:54;100557.31;;;18.75;56.35
692;BME280;70475;50.084;8.576;2023-09-19T10:59:25;100569.22;;;19.02;55.68
692;BME280;70475;50.084;8.576;2023-09-19T11:02:16;100559.38;;;18.96;55.25
692;BME280;70475;50.084;8.576;2023-09-19T11:04:44;100554.63;;;19.14;54.85
692;BME280;70475;50.084;8.576;2023-09-19T11:07:15;100542.19;;;19.58;56.89
692;BME280;70475;50.084;8.576;2023-09-19T11:09:45;100537.09;;;19.94;54.79
692;BME280;70475;50.084;8.576;2023-09-19T11:18:52;100526.97;;;19.68;54.36
692;BME280;70475;50.084;8.576;2023-09-19T11:24:28;100524.66;;;19.77;54.93
692;BME280;70475;50.084;8.576;2023-09-19T11:27:12;100515.91;;;19.53;54.51
692;BME280;70475;50.084;8.576;2023-09-19T11:29:41;100520.56;;;19.41;54.61
692;BME280;70475;50.084;8.576;2023-09-19T11:32:08;100518.75;;;19.30;55.95
692;BME280;70475;50.084;8.576;2023-09-19T11:34:46;100509.28;;;19.61;54.18
692;BME280;70475;50.084;8.576;2023-09-19T11:40:45;100500.22;;;20.21;54.34
692;BME280;70475;50.084;8.576;2023-09-19T11:43:31;100491.97;;;20.33;53.21
692;BME280;70475;50.084;8.576;2023-09-19T11:46:04;100495.38;;;20.23;51.16
692;BME280;70475;50.084;8.576;2023-09-19T11:48:32;100497.72;;;19.98;49.96
692;BME280;70475;50.084;8.576;2023-09-19T11:51:01;100498.63;;;19.71;50.61
692;BME280;70475;50.084;8.576;2023-09-19T11:53:33;100515.72;;;19.93;50.13
692;BME280;70475;50.084;8.576;2023-09-19T11:56:06;100513.19;;;19.86;49.03
692;BME280;70475;50.084;8.576;2023-09-19T11:58:40;100510.06;;;19.78;49.29
692;BME280;70475;50.084;8.576;2023-09-19T12:01:12;100500.56;;;20.08;48.83
692;BME280;70475;50.084;8.576;2023-09-19T12:03:46;100509.78;;;20.51;49.85
692;BME280;70475;50.084;8.576;2023-09-19T12:06:16;100524.38;;;20.93;50.02
692;BME280;70475;50.084;8.576;2023-09-19T12:08:44;100501.53;;;20.84;50.14
692;BME280;70475;50.084;8.576;2023-09-19T12:11:14;100507.38;;;20.76;49.42
692;BME280;70475;50.084;8.576;2023-09-19T12:13:48;100514.19;;;21.00;48.10
692;BME280;70475;50.084;8.576;2023-09-19T12:16:17;100511.00;;;21.08;49.08
692;BME280;70475;50.084;8.576;2023-09-19T12:18:49;100508.09;;;21.14;47.08
692;BME280;70475;50.084;8.576;2023-09-19T12:21:25;100511.44;;;20.73;47.99
692;BME280;70475;50.084;8.576;2023-09-19T12:24:04;100510.03;;;20.49;48.92
692;BME280;70475;50.084;8.576;2023-09-19T12:26:40;100508.28;;;19.83;49.14
692;BME280;70475;50.084;8.576;2023-09-19T12:29:15;100506.47;;;19.56;50.38
692;BME280;70475;50.084;8.576;2023-09-19T12:31:51;100494.38;;;19.42;51.30
692;BME280;70475;50.084;8.576;2023-09-19T12:34:24;100499.19;;;19.56;52.98
692;BME280;70475;50.084;8.576;2023-09-19T12:37:08;100506.44;;;20.05;49.90
692;BME280;70475;50.084;8.576;2023-09-19T12:39:40;100496.19;;;20.07;48.59
692;BME280;70475;50.084;8.576;2023-09-19T12:42:15;100489.84;;;19.97;50.51
692;BME280;70475;50.084;8.576;2023-09-19T12:44:46;100488.28;;;20.01;50.34
692;BME280;70475;50.084;8.576;2023-09-19T12:47:15;100492.53;;;20.13;49.86
692;BME280;70475;50.084;8.576;2023-09-19T12:50:06;100490.16;;;20.38;49.57
692;BME280;70475;50.084;8.576;2023-09-19T12:52:36;100475.59;;;20.88;47.26
692;BME280;70475;50.084;8.576;2023-09-19T12:55:04;100478.94;;;20.95;48.47
692;BME280;70475;50.084;8.576;2023-09-19T12:57:33;100472.72;;;21.26;46.27
692;BME280;70475;50.084;8.576;2023-09-19T13:00:03;100463.06;;;21.35;44.22
692;BME280;70475;50.084;8.576;2023-09-19T13:02:32;100467.91;;;21.33;43.87
692;BME280;70475;50.084;8.576;2023-09-19T13:05:00;100465.25;;;20.85;45.15
692;BME280;70475;50.084;8.576;2023-09-19T13:07:43;100473.44;;;20.63;46.97
692;BME280;70475;50.084;8.576;2023-09-19T13:10:15;100472.88;;;20.88;46.33
692;BME280;70475;50.084;8.576;2023-09-19T13:12:46;100472.75;;;20.99;45.55
692;BME280;70475;50.084;8.576;2023-09-19T13:15:15;100468.56;;;20.92;44.93
692;BME280;70475;50.084;8.576;2023-09-19T13:17:47;100474.91;;;21.29;43.96
692;BME280;70475;50.084;8.576;2023-09-19T13:20:23;100463.56;;;21.63;45.52
692;BME280;70475;50.084;8.576;2023-09-19T13:22:55;100472.84;;;21.72;43.76
692;BME280;70475;50.084;8.576;2023-09-19T13:25:27;100473.00;;;21.61;44.15
692;BME280;70475;50.084;8.576;2023-09-19T13:27:57;100462.34;;;21.44;43.45
692;BME280;70475;50.084;8.576;2023-09-19T13:30:28;100454.91;;;21.66;44.33
692;BME280;70475;50.084;8.576;2023-09-19T13:33:05;100460.53;;;21.60;43.80
692;BME280;70475;50.084;8.576;2023-09-19T13:35:33;100458.31;;;22.35;44.13